createdAt,value
2018-09-09T00:00:35.799Z,15.67
2018-09-09T00:01:45.924Z,15.67
2018-09-09T00:02:55.496Z,15.65
2018-09-09T00:04:05.066Z,15.65
2018-09-09T00:05:15.231Z,15.6
2018-09-09T00:06:24.262Z,15.6
2018-09-09T00:07:33.833Z,15.67
2018-09-09T00:08:43.676Z,15.6
2018-09-09T00:09:52.985Z,15.67
2018-09-09T00:11:02.023Z,15.68
2018-09-09T00:12:11.863Z,15.64
2018-09-09T00:13:21.433Z,15.69
2018-09-09T00:14:31.551Z,15.57
2018-09-09T00:15:41.171Z,15.67
2018-09-09T00:16:50.747Z,15.6
2018-09-09T00:18:00.588Z,15.59
2018-09-09T00:19:10.154Z,15.53
2018-09-09T00:20:19.463Z,15.5
2018-09-09T00:21:29.588Z,15.49
2018-09-09T00:22:38.888Z,15.53
2018-09-09T00:23:47.921Z,15.46
2018-09-09T00:24:58.029Z,15.5
2018-09-09T00:26:07.328Z,15.44
2018-09-09T00:27:17.441Z,15.39
2018-09-09T00:28:27.009Z,15.38
2018-09-09T00:29:36.856Z,15.44
2018-09-09T00:30:46.462Z,15.39
2018-09-09T00:31:56.305Z,15.43
2018-09-09T00:33:06.416Z,15.28
2018-09-09T00:34:16.310Z,15.39
2018-09-09T00:35:26.153Z,15.29
2018-09-09T00:36:36.048Z,15.25
2018-09-09T00:37:45.620Z,15.29
2018-09-09T00:38:55.468Z,15.28
2018-09-09T00:40:05.639Z,15.2
2018-09-09T00:41:15.222Z,15.25
2018-09-09T00:42:25.097Z,15.23
2018-09-09T00:43:35.255Z,15.28
2018-09-09T00:44:45.361Z,15.34
2018-09-09T00:45:54.712Z,15.31
2018-09-09T00:47:04.280Z,15.29
2018-09-09T00:48:13.861Z,15.27
2018-09-09T00:49:23.935Z,15.28
2018-09-09T00:50:33.232Z,15.28
2018-09-09T00:51:42.854Z,15.21
2018-09-09T00:52:52.708Z,15.23
2018-09-09T00:54:02.817Z,15.25
2018-09-09T00:55:12.940Z,15.25
2018-09-09T00:56:23.050Z,15.31
2018-09-09T00:57:33.163Z,15.27
2018-09-09T00:58:42.734Z,15.2
2018-09-09T00:59:52.877Z,15.17
2018-09-09T01:01:02.458Z,15.17
2018-09-09T01:02:12.040Z,15.25
2018-09-09T01:03:21.611Z,15.16
2018-09-09T01:04:31.181Z,15.27
2018-09-09T01:05:40.760Z,15.2
2018-09-09T01:06:50.606Z,15.17
2018-09-09T01:07:59.901Z,15.14
2018-09-09T01:09:09.802Z,15.13
2018-09-09T01:10:19.369Z,15.14
2018-09-09T01:11:29.491Z,15.17
2018-09-09T01:12:39.338Z,15.14
2018-09-09T01:13:48.640Z,15.14
2018-09-09T01:14:58.481Z,15.16
2018-09-09T01:16:08.047Z,15.14
2018-09-09T01:17:18.165Z,15.17
2018-09-09T01:18:28.013Z,15.07
2018-09-09T01:19:38.124Z,15.07
2018-09-09T01:20:48.009Z,15.17
2018-09-09T01:21:57.856Z,15.06
2018-09-09T01:23:07.696Z,15.06
2018-09-09T01:24:17.275Z,15.1
2018-09-09T01:25:26.578Z,15.09
2018-09-09T01:26:36.386Z,15.1
2018-09-09T01:27:45.951Z,15.07
2018-09-09T01:28:55.515Z,15.06
2018-09-09T01:30:05.119Z,15.02
2018-09-09T01:31:14.691Z,15.09
2018-09-09T01:32:24.262Z,15.1
2018-09-09T01:33:34.374Z,15.02
2018-09-09T01:34:44.214Z,14.98
2018-09-09T01:35:53.521Z,15.11
2018-09-09T01:37:03.361Z,15.09
2018-09-09T01:38:12.940Z,15.06
2018-09-09T01:39:22.509Z,14.99
2018-09-09T01:40:32.361Z,14.98
2018-09-09T01:41:41.935Z,14.99
2018-09-09T01:42:51.517Z,15.01
2018-09-09T01:44:01.102Z,14.95
2018-09-09T01:45:10.946Z,14.96
2018-09-09T01:46:20.805Z,14.95
2018-09-09T01:47:30.643Z,14.95
2018-09-09T01:48:39.948Z,15.02
2018-09-09T01:49:49.545Z,14.94
2018-09-09T01:50:59.119Z,14.96
2018-09-09T01:52:08.422Z,14.99
2018-09-09T01:53:17.991Z,15.01
2018-09-09T01:54:27.559Z,14.96
2018-09-09T01:55:37.403Z,15.02
2018-09-09T01:56:47.251Z,14.95
2018-09-09T01:57:56.562Z,14.94
2018-09-09T01:59:06.409Z,14.95
2018-09-09T02:00:16.242Z,14.98
2018-09-09T02:01:25.874Z,15.01
2018-09-09T02:02:35.482Z,14.99
2018-09-09T02:03:45.590Z,14.98
2018-09-09T02:04:55.460Z,14.99
2018-09-09T02:06:05.576Z,14.98
2018-09-09T02:07:15.463Z,14.92
2018-09-09T02:08:25.032Z,14.95
2018-09-09T02:09:34.607Z,14.92
2018-09-09T02:10:43.963Z,14.88
2018-09-09T02:11:53.803Z,14.92
2018-09-09T02:13:03.100Z,14.91
2018-09-09T02:14:12.943Z,14.91
2018-09-09T02:15:22.784Z,14.89
2018-09-09T02:16:32.369Z,14.89
2018-09-09T02:17:41.940Z,14.88
2018-09-09T02:18:51.479Z,14.91
2018-09-09T02:20:01.589Z,14.89
2018-09-09T02:21:11.431Z,14.81
2018-09-09T02:22:21.540Z,14.91
2018-09-09T02:23:30.840Z,14.86
2018-09-09T02:24:40.690Z,14.88
2018-09-09T02:25:50.423Z,14.88
2018-09-09T02:27:00.480Z,14.89
2018-09-09T02:28:10.351Z,14.92
2018-09-09T02:29:20.201Z,14.84
2018-09-09T02:30:29.776Z,14.92
2018-09-09T02:31:39.621Z,14.88
2018-09-09T02:32:48.655Z,14.88
2018-09-09T02:33:58.502Z,14.86
2018-09-09T02:35:08.613Z,14.89
2018-09-09T02:36:18.453Z,14.84
2018-09-09T02:37:28.320Z,14.86
2018-09-09T02:38:37.896Z,14.86
2018-09-09T02:39:47.472Z,14.8
2018-09-09T02:40:56.773Z,14.84
2018-09-09T02:42:06.643Z,14.83
2018-09-09T02:43:16.214Z,14.84
2018-09-09T02:44:25.780Z,14.8
2018-09-09T02:45:35.351Z,14.81
2018-09-09T02:46:45.190Z,14.81
2018-09-09T02:47:55.085Z,14.77
2018-09-09T02:49:04.934Z,14.83
2018-09-09T02:50:14.235Z,14.73
2018-09-09T02:51:23.550Z,14.83
2018-09-09T02:52:33.391Z,14.84
2018-09-09T02:53:42.985Z,14.8
2018-09-09T02:54:53.112Z,14.78
2018-09-09T02:56:03.012Z,14.83
2018-09-09T02:57:12.862Z,14.81
2018-09-09T02:58:22.422Z,14.81
2018-09-09T02:59:32.576Z,14.78
2018-09-09T03:00:42.421Z,14.73
2018-09-09T03:01:52.558Z,14.78
2018-09-09T03:03:02.673Z,14.69
2018-09-09T03:04:12.514Z,14.77
2018-09-09T03:05:22.353Z,14.72
2018-09-09T03:06:32.194Z,14.77
2018-09-09T03:07:42.305Z,14.73
2018-09-09T03:08:52.164Z,14.75
2018-09-09T03:10:02.020Z,14.68
2018-09-09T03:11:11.866Z,14.8
2018-09-09T03:12:21.973Z,14.8
2018-09-09T03:13:31.547Z,14.75
2018-09-09T03:14:41.117Z,14.75
2018-09-09T03:15:51.230Z,14.65
2018-09-09T03:17:01.109Z,14.68
2018-09-09T03:18:10.965Z,14.61
2018-09-09T03:19:20.271Z,14.64
2018-09-09T03:20:30.400Z,14.73
2018-09-09T03:21:40.255Z,14.68
2018-09-09T03:22:50.105Z,14.6
2018-09-09T03:24:00.218Z,14.52
2018-09-09T03:25:09.798Z,14.64
2018-09-09T03:26:19.383Z,14.62
2018-09-09T03:27:28.956Z,14.64
2018-09-09T03:28:39.010Z,14.52
2018-09-09T03:29:49.331Z,14.51
2018-09-09T03:30:59.191Z,14.55
2018-09-09T03:32:09.312Z,14.61
2018-09-09T03:33:19.435Z,14.68
2018-09-09T03:34:29.778Z,14.51
2018-09-09T03:35:39.652Z,14.52
2018-09-09T03:36:49.224Z,14.57
2018-09-09T03:37:58.791Z,14.55
2018-09-09T03:39:08.636Z,14.65
2018-09-09T03:40:18.757Z,14.61
2018-09-09T03:41:28.064Z,14.54
2018-09-09T03:42:38.183Z,14.55
2018-09-09T03:43:48.024Z,14.55
2018-09-09T03:44:57.899Z,14.58
2018-09-09T03:46:07.741Z,14.51
2018-09-09T03:47:17.040Z,14.61
2018-09-09T03:48:26.609Z,14.58
2018-09-09T03:49:36.721Z,14.68
2018-09-09T03:50:46.024Z,14.57
2018-09-09T03:51:55.609Z,14.57
2018-09-09T03:53:04.915Z,14.54
2018-09-09T03:54:14.763Z,14.57
2018-09-09T03:55:24.066Z,14.55
2018-09-09T03:56:34.008Z,14.58
2018-09-09T03:57:43.832Z,14.55
2018-09-09T03:58:53.951Z,14.54
2018-09-09T04:00:03.525Z,14.52
2018-09-09T04:01:13.100Z,14.52
2018-09-09T04:02:22.939Z,14.58
2018-09-09T04:03:33.046Z,14.57
2018-09-09T04:04:42.890Z,14.54
2018-09-09T04:05:52.463Z,14.57
2018-09-09T04:07:01.765Z,14.58
2018-09-09T04:08:11.609Z,14.57
2018-09-09T04:09:20.908Z,14.55
2018-09-09T04:10:30.813Z,14.52
2018-09-09T04:11:40.395Z,14.57
2018-09-09T04:12:50.504Z,14.57
2018-09-09T04:14:00.127Z,14.55
2018-09-09T04:15:10.244Z,14.54
2018-09-09T04:16:20.352Z,14.55
2018-09-09T04:17:29.667Z,14.57
2018-09-09T04:18:39.780Z,14.6
2018-09-09T04:19:49.366Z,14.58
2018-09-09T04:20:59.238Z,14.54
2018-09-09T04:22:09.077Z,14.62
2018-09-09T04:23:18.102Z,14.61
2018-09-09T04:24:27.671Z,14.61
2018-09-09T04:25:37.515Z,14.6
2018-09-09T04:26:47.643Z,14.65
2018-09-09T04:27:57.768Z,14.61
2018-09-09T04:29:07.889Z,14.57
2018-09-09T04:30:17.734Z,14.58
2018-09-09T04:31:27.608Z,14.61
2018-09-09T04:32:37.187Z,14.6
2018-09-09T04:33:47.024Z,14.55
2018-09-09T04:34:56.860Z,14.52
2018-09-09T04:36:06.434Z,14.54
2018-09-09T04:37:16.289Z,14.61
2018-09-09T04:38:25.871Z,14.61
2018-09-09T04:39:35.171Z,14.61
2018-09-09T04:40:45.289Z,14.58
2018-09-09T04:41:55.136Z,14.5
2018-09-09T04:43:04.705Z,14.55
2018-09-09T04:44:13.744Z,14.57
2018-09-09T04:45:23.310Z,14.55
2018-09-09T04:46:33.300Z,14.55
2018-09-09T04:47:42.872Z,14.58
2018-09-09T04:48:52.994Z,14.6
2018-09-09T04:50:02.838Z,14.6
2018-09-09T04:51:12.681Z,14.58
2018-09-09T04:52:22.534Z,14.61
2018-09-09T04:53:32.655Z,14.55
2018-09-09T04:54:42.235Z,14.58
2018-09-09T04:55:52.081Z,14.55
2018-09-09T04:57:02.193Z,14.54
2018-09-09T04:58:12.034Z,14.6
2018-09-09T04:59:21.665Z,14.61
2018-09-09T05:00:31.500Z,14.6
2018-09-09T05:01:41.608Z,14.47
2018-09-09T05:02:51.726Z,14.58
2018-09-09T05:04:01.582Z,14.6
2018-09-09T05:05:11.423Z,14.57
2018-09-09T05:06:21.000Z,14.61
2018-09-09T05:07:30.856Z,14.55
2018-09-09T05:08:40.971Z,14.61
2018-09-09T05:09:50.542Z,14.61
2018-09-09T05:11:00.389Z,14.52
2018-09-09T05:12:09.958Z,14.57
2018-09-09T05:13:19.804Z,14.61
2018-09-09T05:14:29.646Z,14.47
2018-09-09T05:15:39.492Z,14.58
2018-09-09T05:16:49.328Z,14.6
2018-09-09T05:17:58.904Z,14.62
2018-09-09T05:19:08.750Z,14.58
2018-09-09T05:20:18.591Z,14.58
2018-09-09T05:21:28.426Z,14.57
2018-09-09T05:22:38.267Z,14.57
2018-09-09T05:23:48.378Z,14.6
2018-09-09T05:24:58.271Z,14.58
2018-09-09T05:26:08.390Z,14.62
2018-09-09T05:27:18.508Z,14.54
2018-09-09T05:28:28.080Z,14.72
2018-09-09T05:29:38.191Z,14.62
2018-09-09T05:30:47.766Z,14.7
2018-09-09T05:31:57.892Z,14.64
2018-09-09T05:33:08.013Z,14.68
2018-09-09T05:34:18.129Z,14.69
2018-09-09T05:35:27.697Z,14.6
2018-09-09T05:36:37.812Z,14.8
2018-09-09T05:37:47.382Z,14.77
2018-09-09T05:38:57.221Z,14.72
2018-09-09T05:40:07.332Z,14.73
2018-09-09T05:41:16.905Z,14.58
2018-09-09T05:42:26.643Z,14.75
2018-09-09T05:43:36.927Z,14.7
2018-09-09T05:44:47.400Z,14.72
2018-09-09T05:45:56.712Z,14.73
2018-09-09T05:47:06.291Z,14.68
2018-09-09T05:48:16.141Z,14.81
2018-09-09T05:49:26.257Z,14.68
2018-09-09T05:50:35.556Z,14.72
2018-09-09T05:51:45.374Z,14.72
2018-09-09T05:52:55.485Z,14.72
2018-09-09T05:54:05.431Z,14.78
2018-09-09T05:55:15.605Z,14.78
2018-09-09T05:56:25.456Z,14.69
2018-09-09T05:57:34.756Z,14.72
2018-09-09T05:58:44.376Z,14.81
2018-09-09T05:59:54.266Z,14.84
2018-09-09T06:01:04.107Z,14.86
2018-09-09T06:02:14.290Z,14.94
2018-09-09T06:03:24.403Z,14.86
2018-09-09T06:04:33.432Z,14.92
2018-09-09T06:05:43.547Z,14.94
2018-09-09T06:06:53.131Z,14.92
2018-09-09T06:08:02.711Z,14.99
2018-09-09T06:09:12.848Z,14.98
2018-09-09T06:10:22.695Z,15.01
2018-09-09T06:11:32.546Z,14.99
2018-09-09T06:12:42.113Z,15.01
2018-09-09T06:13:51.962Z,15.09
2018-09-09T06:15:01.803Z,15.11
2018-09-09T06:16:11.915Z,15.1
2018-09-09T06:17:20.946Z,15.11
2018-09-09T06:18:31.004Z,15.14
2018-09-09T06:19:40.576Z,15.14
2018-09-09T06:20:50.691Z,15.14
2018-09-09T06:22:00.542Z,15.13
2018-09-09T06:23:10.118Z,15.13
2018-09-09T06:24:20.158Z,15.14
2018-09-09T06:25:29.999Z,15.19
2018-09-09T06:26:39.572Z,15.17
2018-09-09T06:27:48.871Z,15.11
2018-09-09T06:28:58.492Z,15.13
2018-09-09T06:30:08.343Z,15.14
2018-09-09T06:31:18.176Z,15.17
2018-09-09T06:32:28.285Z,15.23
2018-09-09T06:33:38.574Z,15.11
2018-09-09T06:34:48.959Z,15.23
2018-09-09T06:35:58.807Z,15.25
2018-09-09T06:37:08.132Z,15.17
2018-09-09T06:38:17.482Z,15.25
2018-09-09T06:39:27.055Z,15.27
2018-09-09T06:40:36.634Z,15.2
2018-09-09T06:41:46.753Z,15.28
2018-09-09T06:42:56.600Z,15.21
2018-09-09T06:44:06.179Z,15.29
2018-09-09T06:45:16.026Z,15.25
2018-09-09T06:46:26.291Z,15.21
2018-09-09T06:47:36.649Z,15.21
2018-09-09T06:48:46.773Z,15.28
2018-09-09T06:49:55.801Z,15.36
2018-09-09T06:51:05.107Z,15.27
2018-09-09T06:52:15.085Z,15.34
2018-09-09T06:53:25.198Z,15.36
2018-09-09T06:54:34.770Z,15.38
2018-09-09T06:55:44.615Z,15.46
2018-09-09T06:56:54.189Z,15.53
2018-09-09T06:58:03.538Z,15.53
2018-09-09T06:59:13.663Z,15.53
2018-09-09T07:00:23.235Z,15.59
2018-09-09T07:01:32.541Z,15.59
2018-09-09T07:02:42.111Z,15.62
2018-09-09T07:03:52.005Z,15.64
2018-09-09T07:05:01.857Z,15.67
2018-09-09T07:06:11.994Z,15.82
2018-09-09T07:07:21.291Z,15.76
2018-09-09T07:08:30.867Z,15.89
2018-09-09T07:09:40.702Z,15.94
2018-09-09T07:10:50.688Z,15.97
2018-09-09T07:12:01.566Z,16.01
2018-09-09T07:13:11.836Z,15.94
2018-09-09T07:14:21.144Z,16.05
2018-09-09T07:15:30.777Z,16.01
2018-09-09T07:16:40.623Z,16.01
2018-09-09T07:17:50.731Z,16.07
2018-09-09T07:19:00.633Z,16.14
2018-09-09T07:20:10.632Z,16.23
2018-09-09T07:21:20.476Z,16.09
2018-09-09T07:22:30.368Z,16.25
2018-09-09T07:23:39.792Z,16.25
2018-09-09T07:24:49.912Z,16.33
2018-09-09T07:25:59.482Z,16.43
2018-09-09T07:27:08.786Z,16.42
2018-09-09T07:28:18.904Z,16.48
2018-09-09T07:29:28.839Z,16.46
2018-09-09T07:30:38.408Z,16.66
2018-09-09T07:31:48.253Z,16.57
2018-09-09T07:32:57.559Z,16.75
2018-09-09T07:34:07.818Z,16.73
2018-09-09T07:35:17.693Z,16.73
2018-09-09T07:36:26.998Z,16.75
2018-09-09T07:37:36.628Z,16.88
2018-09-09T07:38:46.223Z,16.86
2018-09-09T07:39:56.367Z,16.88
2018-09-09T07:41:05.936Z,16.88
2018-09-09T07:42:15.535Z,16.91
2018-09-09T07:43:25.367Z,16.88
2018-09-09T07:44:35.467Z,16.88
2018-09-09T07:45:44.773Z,16.98
2018-09-09T07:46:54.613Z,17.03
2018-09-09T07:48:04.476Z,16.98
2018-09-09T07:49:14.325Z,17.06
2018-09-09T07:50:24.181Z,17.15
2018-09-09T07:51:33.767Z,17.12
2018-09-09T07:52:43.338Z,17.12
2018-09-09T07:53:53.288Z,17.16
2018-09-09T07:55:03.134Z,17.28
2018-09-09T07:56:12.460Z,17.25
2018-09-09T07:57:22.309Z,17.25
2018-09-09T07:58:32.178Z,17.33
2018-09-09T07:59:41.478Z,17.4
2018-09-09T08:00:51.589Z,17.46
2018-09-09T08:02:01.441Z,17.59
2018-09-09T08:03:11.008Z,17.54
2018-09-09T08:04:21.120Z,17.56
2018-09-09T08:05:30.962Z,17.64
2018-09-09T08:06:40.800Z,17.68
2018-09-09T08:07:50.909Z,17.66
2018-09-09T08:09:00.487Z,17.72
2018-09-09T08:10:10.330Z,17.74
2018-09-09T08:11:20.454Z,17.74
2018-09-09T08:12:30.579Z,17.81
2018-09-09T08:13:40.150Z,17.75
2018-09-09T08:14:50.270Z,17.78
2018-09-09T08:15:59.849Z,17.78
2018-09-09T08:17:09.695Z,17.77
2018-09-09T08:18:18.817Z,17.68
2018-09-09T08:19:28.844Z,17.72
2018-09-09T08:20:38.427Z,17.79
2018-09-09T08:21:47.463Z,17.79
2018-09-09T08:22:57.038Z,17.78
2018-09-09T08:24:06.344Z,17.75
2018-09-09T08:25:16.464Z,17.77
2018-09-09T08:26:26.040Z,17.79
2018-09-09T08:27:35.621Z,17.74
2018-09-09T08:28:45.768Z,17.81
2018-09-09T08:29:55.070Z,17.9
2018-09-09T08:31:05.190Z,17.96
2018-09-09T08:32:15.030Z,17.92
2018-09-09T08:33:25.145Z,17.93
2018-09-09T08:34:35.013Z,18
2018-09-09T08:35:45.146Z,18.12
2018-09-09T08:36:54.712Z,18.14
2018-09-09T08:38:04.555Z,18.14
2018-09-09T08:39:13.865Z,18.25
2018-09-09T08:40:23.448Z,18.2
2018-09-09T08:41:33.025Z,18.33
2018-09-09T08:42:43.136Z,18.45
2018-09-09T08:43:52.988Z,18.48
2018-09-09T08:45:03.075Z,18.57
2018-09-09T08:46:12.976Z,18.72
2018-09-09T08:47:23.098Z,18.84
2018-09-09T08:48:32.941Z,18.88
2018-09-09T08:49:42.515Z,18.95
2018-09-09T08:50:52.353Z,19.07
2018-09-09T08:52:02.689Z,19.06
2018-09-09T08:53:12.943Z,19.18
2018-09-09T08:54:22.242Z,19.29
2018-09-09T08:55:32.383Z,19.26
2018-09-09T08:56:42.554Z,19.33
2018-09-09T08:57:52.390Z,19.23
2018-09-09T08:59:01.964Z,19.25
2018-09-09T09:00:11.539Z,19.33
2018-09-09T09:01:20.573Z,19.33
2018-09-09T09:02:30.415Z,19.39
2018-09-09T09:03:39.500Z,19.41
2018-09-09T09:04:48.807Z,19.39
2018-09-09T09:05:58.654Z,19.43
2018-09-09T09:07:08.425Z,19.46
2018-09-09T09:08:18.384Z,19.4
2018-09-09T09:09:27.954Z,19.37
2018-09-09T09:10:38.106Z,19.4
2018-09-09T09:11:47.953Z,19.41
2018-09-09T09:12:57.254Z,19.48
2018-09-09T09:14:07.095Z,19.58
2018-09-09T09:15:16.180Z,19.62
2018-09-09T09:16:26.027Z,19.59
2018-09-09T09:17:35.338Z,19.61
2018-09-09T09:18:45.307Z,19.59
2018-09-09T09:19:55.436Z,19.59
2018-09-09T09:21:05.018Z,19.74
2018-09-09T09:22:15.170Z,19.62
2018-09-09T09:23:25.286Z,19.69
2018-09-09T09:24:35.487Z,19.69
2018-09-09T09:25:45.601Z,19.76
2018-09-09T09:26:54.635Z,19.74
2018-09-09T09:28:04.211Z,19.98
2018-09-09T09:29:14.325Z,19.94
2018-09-09T09:30:24.171Z,20.06
2018-09-09T09:31:34.021Z,20.1
2018-09-09T09:32:44.111Z,20.08
2018-09-09T09:33:53.954Z,20.05
2018-09-09T09:35:04.273Z,20.13
2018-09-09T09:36:14.416Z,20.29
2018-09-09T09:37:24.268Z,20.31
2018-09-09T09:38:33.871Z,20.28
2018-09-09T09:39:43.175Z,20.29
2018-09-09T09:40:53.034Z,20.36
2018-09-09T09:42:02.898Z,20.33
2018-09-09T09:43:12.744Z,20.35
2018-09-09T09:44:22.600Z,20.41
2018-09-09T09:45:32.707Z,20.36
2018-09-09T09:46:42.562Z,20.54
2018-09-09T09:47:52.407Z,20.5
2018-09-09T09:49:02.527Z,20.48
2018-09-09T09:50:12.141Z,20.48
2018-09-09T09:51:22.251Z,20.51
2018-09-09T09:52:31.821Z,20.57
2018-09-09T09:53:42.205Z,20.61
2018-09-09T09:54:52.052Z,20.59
2018-09-09T09:56:01.089Z,20.51
2018-09-09T09:57:11.202Z,20.48
2018-09-09T09:58:20.773Z,20.52
2018-09-09T09:59:30.618Z,20.52
2018-09-09T10:00:40.465Z,20.48
2018-09-09T10:01:50.039Z,20.52
2018-09-09T10:02:59.886Z,20.54
2018-09-09T10:04:09.195Z,20.51
2018-09-09T10:05:18.707Z,20.54
2018-09-09T10:06:28.558Z,20.51
2018-09-09T10:07:37.861Z,20.5
2018-09-09T10:08:48.006Z,20.55
2018-09-09T10:09:58.186Z,20.61
2018-09-09T10:11:08.031Z,20.55
2018-09-09T10:12:18.144Z,20.59
2018-09-09T10:13:27.717Z,20.55
2018-09-09T10:14:37.571Z,20.5
2018-09-09T10:15:47.157Z,20.52
2018-09-09T10:16:57.249Z,20.51
2018-09-09T10:18:07.034Z,20.43
2018-09-09T10:19:16.611Z,20.47
2018-09-09T10:20:26.183Z,20.54
2018-09-09T10:21:36.033Z,20.51
2018-09-09T10:22:45.613Z,20.5
2018-09-09T10:23:55.806Z,20.51
2018-09-09T10:25:05.443Z,20.47
2018-09-09T10:26:15.275Z,20.58
2018-09-09T10:27:25.390Z,20.66
2018-09-09T10:28:34.964Z,20.73
2018-09-09T10:29:44.540Z,20.76
2018-09-09T10:30:54.159Z,20.72
2018-09-09T10:32:04.005Z,20.69
2018-09-09T10:33:13.581Z,20.66
2018-09-09T10:34:23.149Z,20.73
2018-09-09T10:35:32.991Z,20.74
2018-09-09T10:36:42.297Z,20.87
2018-09-09T10:37:51.597Z,20.79
2018-09-09T10:39:01.188Z,20.69
2018-09-09T10:40:10.805Z,20.73
2018-09-09T10:41:20.385Z,20.74
2018-09-09T10:42:30.021Z,20.79
2018-09-09T10:43:39.859Z,20.76
2018-09-09T10:44:49.704Z,20.94
2018-09-09T10:45:59.571Z,20.91
2018-09-09T10:47:09.821Z,21.03
2018-09-09T10:48:20.266Z,21.04
2018-09-09T10:49:30.381Z,21.07
2018-09-09T10:50:40.496Z,21.17
2018-09-09T10:51:50.346Z,21.19
2018-09-09T10:52:59.708Z,21.12
2018-09-09T10:54:09.903Z,21.13
2018-09-09T10:55:19.745Z,21.13
2018-09-09T10:56:29.592Z,21.09
2018-09-09T10:57:39.173Z,21.22
2018-09-09T10:58:49.550Z,21.19
2018-09-09T10:59:59.006Z,21.19
2018-09-09T11:01:09.093Z,21.22
2018-09-09T11:02:18.940Z,21.22
2018-09-09T11:03:28.510Z,21.17
2018-09-09T11:04:38.085Z,21.31
2018-09-09T11:05:47.389Z,21.27
2018-09-09T11:06:56.952Z,21.25
2018-09-09T11:08:06.470Z,21.31
2018-09-09T11:09:15.505Z,21.29
2018-09-09T11:10:25.632Z,21.29
2018-09-09T11:11:35.483Z,21.31
2018-09-09T11:12:45.681Z,21.43
2018-09-09T11:13:55.020Z,21.5
2018-09-09T11:15:04.869Z,21.29
2018-09-09T11:16:14.436Z,21.27
2018-09-09T11:17:24.547Z,21.32
2018-09-09T11:18:33.852Z,21.32
2018-09-09T11:19:43.970Z,21.43
2018-09-09T11:20:53.821Z,21.38
2018-09-09T11:22:03.665Z,21.47
2018-09-09T11:23:13.015Z,21.38
2018-09-09T11:24:22.624Z,21.4
2018-09-09T11:25:32.358Z,21.28
2018-09-09T11:26:42.206Z,21.35
2018-09-09T11:27:52.049Z,21.43
2018-09-09T11:29:01.674Z,21.43
2018-09-09T11:30:11.519Z,21.65
2018-09-09T11:31:21.368Z,21.69
2018-09-09T11:32:31.251Z,21.77
2018-09-09T11:33:41.098Z,21.82
2018-09-09T11:34:51.206Z,21.71
2018-09-09T11:36:00.782Z,21.82
2018-09-09T11:37:10.922Z,21.77
2018-09-09T11:38:20.226Z,21.84
2018-09-09T11:39:29.798Z,21.8
2018-09-09T11:40:39.162Z,21.9
2018-09-09T11:41:48.974Z,21.86
2018-09-09T11:42:58.564Z,21.9
2018-09-09T11:44:08.411Z,21.94
2018-09-09T11:45:18.532Z,22.03
2018-09-09T11:46:28.381Z,21.82
2018-09-09T11:47:38.235Z,21.86
2018-09-09T11:48:48.079Z,22.02
2018-09-09T11:49:57.939Z,22.06
2018-09-09T11:51:07.523Z,22
2018-09-09T11:52:16.826Z,21.99
2018-09-09T11:53:26.673Z,22.21
2018-09-09T11:54:36.516Z,22.22
2018-09-09T11:55:46.362Z,22.24
2018-09-09T11:56:56.214Z,22.42
2018-09-09T11:58:06.067Z,22.52
2018-09-09T11:59:15.108Z,22.72
2018-09-09T12:00:24.682Z,22.79
2018-09-09T12:01:34.021Z,22.64
2018-09-09T12:02:43.593Z,22.64
2018-09-09T12:03:53.712Z,22.67
2018-09-09T12:05:03.835Z,22.65
2018-09-09T12:06:13.441Z,22.85
2018-09-09T12:07:23.627Z,22.9
2018-09-09T12:08:33.301Z,23
2018-09-09T12:09:43.422Z,22.97
2018-09-09T12:10:53.566Z,22.95
2018-09-09T12:12:02.876Z,22.76
2018-09-09T12:13:12.725Z,22.76
2018-09-09T12:14:22.038Z,22.86
2018-09-09T12:15:31.891Z,22.97
2018-09-09T12:16:41.484Z,23.04
2018-09-09T12:17:51.616Z,23.13
2018-09-09T12:19:00.924Z,23.15
2018-09-09T12:20:10.775Z,23.12
2018-09-09T12:21:20.626Z,23.12
2018-09-09T12:22:29.663Z,23.2
2018-09-09T12:23:39.717Z,23.25
2018-09-09T12:24:49.323Z,23.13
2018-09-09T12:25:59.444Z,23.09
2018-09-09T12:27:09.020Z,23.02
2018-09-09T12:28:18.329Z,23.05
2018-09-09T12:29:27.905Z,23.15
2018-09-09T12:30:38.027Z,22.95
2018-09-09T12:31:48.151Z,23.1
2018-09-09T12:32:57.995Z,23.04
2018-09-09T12:34:07.358Z,23.07
2018-09-09T12:35:17.473Z,23.15
2018-09-09T12:36:27.328Z,23.13
2018-09-09T12:37:37.510Z,23.17
2018-09-09T12:38:47.182Z,23.12
2018-09-09T12:39:56.758Z,23.04
2018-09-09T12:41:06.338Z,23.1
2018-09-09T12:42:16.452Z,23.04
2018-09-09T12:43:26.298Z,23.07
2018-09-09T12:44:35.880Z,23.17
2018-09-09T12:45:45.467Z,23.19
2018-09-09T12:46:55.597Z,23.22
2018-09-09T12:48:05.505Z,23.23
2018-09-09T12:49:15.138Z,23.25
2018-09-09T12:50:24.719Z,23.38
2018-09-09T12:51:34.301Z,23.33
2018-09-09T12:52:44.430Z,23.17
2018-09-09T12:53:54.550Z,23.12
2018-09-09T12:55:04.185Z,23.25
2018-09-09T12:56:14.308Z,23.22
2018-09-09T12:57:24.422Z,23.25
2018-09-09T12:58:33.190Z,23.28
2018-09-09T12:59:42.503Z,23.23
2018-09-09T13:00:52.081Z,23.23
2018-09-09T13:02:02.208Z,23.35
2018-09-09T13:03:11.834Z,23.28
2018-09-09T13:04:21.143Z,23.35
2018-09-09T13:05:31.271Z,23.28
2018-09-09T13:06:41.125Z,23.42
2018-09-09T13:07:50.433Z,23.38
2018-09-09T13:09:00.315Z,23.38
2018-09-09T13:10:10.658Z,23.51
2018-09-09T13:11:20.233Z,23.61
2018-09-09T13:12:30.292Z,23.68
2018-09-09T13:13:40.133Z,23.61
2018-09-09T13:14:50.250Z,23.78
2018-09-09T13:15:59.824Z,23.79
2018-09-09T13:17:09.946Z,23.9
2018-09-09T13:18:20.064Z,23.93
2018-09-09T13:19:29.648Z,23.93
2018-09-09T13:20:39.228Z,23.98
2018-09-09T13:21:49.342Z,23.98
2018-09-09T13:22:58.920Z,24.05
2018-09-09T13:24:08.496Z,23.93
2018-09-09T13:25:18.644Z,24.05
2018-09-09T13:26:28.536Z,24.05
2018-09-09T13:27:38.655Z,24.22
2018-09-09T13:28:48.527Z,24.22
2018-09-09T13:29:58.405Z,24.37
2018-09-09T13:31:08.547Z,24.42
2018-09-09T13:32:18.393Z,24.35
2018-09-09T13:33:28.253Z,24.42
2018-09-09T13:34:37.836Z,24.45
2018-09-09T13:35:47.685Z,24.35
2018-09-09T13:36:57.537Z,24.5
2018-09-09T13:38:07.658Z,24.6
2018-09-09T13:39:17.502Z,24.61
2018-09-09T13:40:27.346Z,24.84
2018-09-09T13:41:37.465Z,24.99
2018-09-09T13:42:47.360Z,24.78
2018-09-09T13:43:57.504Z,24.87
2018-09-09T13:45:07.357Z,24.85
2018-09-09T13:46:17.212Z,24.8
2018-09-09T13:47:27.061Z,24.67
2018-09-09T13:48:37.326Z,24.61
2018-09-09T13:49:46.905Z,24.71
2018-09-09T13:50:56.751Z,24.83
2018-09-09T13:52:06.069Z,24.8
2018-09-09T13:53:15.706Z,24.9
2018-09-09T13:54:25.558Z,24.95
2018-09-09T13:55:35.415Z,25.03
2018-09-09T13:56:45.267Z,24.87
2018-09-09T13:57:54.587Z,24.87
2018-09-09T13:59:04.166Z,24.85
2018-09-09T14:00:14.295Z,25.02
2018-09-09T14:01:23.881Z,25.03
2018-09-09T14:02:33.459Z,25.09
2018-09-09T14:03:42.808Z,25.03
2018-09-09T14:04:53.034Z,25.17
2018-09-09T14:06:03.188Z,25.14
2018-09-09T14:07:13.043Z,25.23
2018-09-09T14:08:22.895Z,25.06
2018-09-09T14:09:33.197Z,25.14
2018-09-09T14:10:43.353Z,25.09
2018-09-09T14:11:53.474Z,25
2018-09-09T14:13:03.322Z,24.99
2018-09-09T14:14:12.900Z,24.69
2018-09-09T14:15:22.647Z,24.69
2018-09-09T14:16:32.275Z,24.73
2018-09-09T14:17:42.130Z,24.81
2018-09-09T14:18:51.704Z,24.84
2018-09-09T14:20:01.583Z,25.15
2018-09-09T14:21:10.647Z,25.35
2018-09-09T14:22:20.509Z,25.45
2018-09-09T14:23:30.918Z,25.62
2018-09-09T14:24:40.770Z,25.9
2018-09-09T14:25:50.352Z,26.01
2018-09-09T14:26:59.947Z,26.09
2018-09-09T14:28:09.540Z,26.32
2018-09-09T14:29:19.277Z,26.28
2018-09-09T14:30:29.758Z,26.23
2018-09-09T14:31:39.887Z,26.44
2018-09-09T14:32:49.743Z,26.63
2018-09-09T14:33:59.609Z,26.65
2018-09-09T14:35:09.475Z,26.66
2018-09-09T14:36:19.072Z,26.76
2018-09-09T14:37:29.231Z,26.92
2018-09-09T14:38:39.094Z,26.91
2018-09-09T14:39:48.951Z,26.94
2018-09-09T14:40:58.273Z,27.03
2018-09-09T14:42:08.403Z,26.94
2018-09-09T14:43:18.525Z,26.97
2018-09-09T14:44:28.149Z,26.94
2018-09-09T14:45:38.004Z,26.75
2018-09-09T14:46:48.131Z,26.85
2018-09-09T14:47:57.986Z,26.69
2018-09-09T14:49:08.110Z,26.57
2018-09-09T14:50:17.981Z,26.35
2018-09-09T14:51:27.839Z,26.37
2018-09-09T14:52:37.429Z,26.35
2018-09-09T14:53:47.288Z,26.45
2018-09-09T14:54:57.144Z,26.32
2018-09-09T14:56:06.466Z,26.28
2018-09-09T14:57:16.275Z,26.36
2018-09-09T14:58:25.893Z,26.47
2018-09-09T14:59:35.485Z,26.29
2018-09-09T15:00:45.070Z,26.25
2018-09-09T15:01:54.926Z,26.26